sensor_id;sensor_type;location;lat;lon;timestamp;P1;P2;P0
46302;PMS7003;32029;51.358;5.628;2024-02-14T00:00:09;3.67;3.67;3.00
46302;PMS7003;32029;51.358;5.628;2024-02-14T00:02:48;4.00;4.00;3.67
46302;PMS7003;32029;51.358;5.628;2024-02-14T00:05:15;6.00;4.00;3.00
46302;PMS7003;32029;51.358;5.628;2024-02-14T00:07:42;3.67;3.67;3.00
46302;PMS7003;32029;51.358;5.628;2024-02-14T00:10:09;6.67;4.00;3.00
46302;PMS7003;32029;51.358;5.628;2024-02-14T00:12:36;4.00;4.00;2.33
46302;PMS7003;32029;51.358;5.628;2024-02-14T00:15:03;3.67;3.67;3.00
46302;PMS7003;32029;51.358;5.628;2024-02-14T00:17:34;2.00;2.00;2.00
46302;PMS7003;32029;51.358;5.628;2024-02-14T00:20:01;4.00;4.00;3.00
46302;PMS7003;32029;51.358;5.628;2024-02-14T00:22:30;3.33;3.00;3.00
46302;PMS7003;32029;51.358;5.628;2024-02-14T00:24:57;4.00;3.00;3.00
46302;PMS7003;32029;51.358;5.628;2024-02-14T00:27:23;5.33;5.33;4.00
46302;PMS7003;32029;51.358;5.628;2024-02-14T00:29:52;4.67;3.67;3.33
46302;PMS7003;32029;51.358;5.628;2024-02-14T00:32:20;8.00;4.00;3.00
46302;PMS7003;32029;51.358;5.628;2024-02-14T00:34:48;4.60;4.00;3.00
46302;PMS7003;32029;51.358;5.628;2024-02-14T00:37:16;2.00;2.00;2.00
46302;PMS7003;32029;51.358;5.628;2024-02-14T00:39:42;6.00;6.00;4.67
46302;PMS7003;32029;51.358;5.628;2024-02-14T00:42:09;4.00;4.00;4.00
46302;PMS7003;32029;51.358;5.628;2024-02-14T00:44:37;4.00;4.00;3.00
46302;PMS7003;32029;51.358;5.628;2024-02-14T00:47:04;6.00;6.00;3.33
46302;PMS7003;32029;51.358;5.628;2024-02-14T00:49:33;4.33;3.00;3.00
46302;PMS7003;32029;51.358;5.628;2024-02-14T00:52:01;6.67;6.67;6.00
46302;PMS7003;32029;51.358;5.628;2024-02-14T00:54:28;8.40;6.40;4.00
46302;PMS7003;32029;51.358;5.628;2024-02-14T00:56:55;6.00;4.00;3.00
46302;PMS7003;32029;51.358;5.628;2024-02-14T00:59:22;3.00;3.00;3.00
46302;PMS7003;32029;51.358;5.628;2024-02-14T01:01:50;7.60;6.00;4.00
46302;PMS7003;32029;51.358;5.628;2024-02-14T01:04:16;6.67;6.67;5.33
46302;PMS7003;32029;51.358;5.628;2024-02-14T01:06:43;6.00;6.00;4.00
46302;PMS7003;32029;51.358;5.628;2024-02-14T01:09:10;6.67;6.00;4.00
46302;PMS7003;32029;51.358;5.628;2024-02-14T01:11:37;8.33;4.00;3.00
46302;PMS7003;32029;51.358;5.628;2024-02-14T01:14:05;2.00;2.00;2.00
46302;PMS7003;32029;51.358;5.628;2024-02-14T01:16:33;6.20;6.20;4.00
46302;PMS7003;32029;51.358;5.628;2024-02-14T01:19:00;6.00;6.00;4.00
46302;PMS7003;32029;51.358;5.628;2024-02-14T01:21:26;6.33;6.33;5.33
46302;PMS7003;32029;51.358;5.628;2024-02-14T01:23:54;6.60;4.80;3.20
46302;PMS7003;32029;51.358;5.628;2024-02-14T01:26:21;6.00;5.67;5.33
46302;PMS7003;32029;51.358;5.628;2024-02-14T01:28:49;8.80;7.60;4.40
46302;PMS7003;32029;51.358;5.628;2024-02-14T01:31:17;6.40;6.00;4.00
46302;PMS7003;32029;51.358;5.628;2024-02-14T01:33:43;7.67;6.00;3.00
46302;PMS7003;32029;51.358;5.628;2024-02-14T01:36:13;4.00;4.00;4.00
46302;PMS7003;32029;51.358;5.628;2024-02-14T01:38:39;9.67;8.00;5.67
46302;PMS7003;32029;51.358;5.628;2024-02-14T01:41:06;6.33;5.67;4.00
46302;PMS7003;32029;51.358;5.628;2024-02-14T01:43:34;7.00;5.60;4.00
46302;PMS7003;32029;51.358;5.628;2024-02-14T01:46:04;6.67;5.67;4.00
46302;PMS7003;32029;51.358;5.628;2024-02-14T01:48:34;7.00;4.60;3.60
46302;PMS7003;32029;51.358;5.628;2024-02-14T01:51:01;6.67;5.67;4.00
46302;PMS7003;32029;51.358;5.628;2024-02-14T01:53:31;4.67;4.00;3.67
46302;PMS7003;32029;51.358;5.628;2024-02-14T01:55:58;8.33;7.33;5.67
46302;PMS7003;32029;51.358;5.628;2024-02-14T01:58:26;6.00;4.00;4.00
46302;PMS7003;32029;51.358;5.628;2024-02-14T02:00:56;8.67;4.00;3.67
46302;PMS7003;32029;51.358;5.628;2024-02-14T02:03:26;5.80;4.20;4.00
46302;PMS7003;32029;51.358;5.628;2024-02-14T02:05:54;7.80;6.40;5.00
46302;PMS7003;32029;51.358;5.628;2024-02-14T02:08:21;7.67;5.67;4.67
46302;PMS7003;32029;51.358;5.628;2024-02-14T02:10:49;4.40;4.40;4.00
46302;PMS7003;32029;51.358;5.628;2024-02-14T02:13:17;7.40;4.80;4.00
46302;PMS7003;32029;51.358;5.628;2024-02-14T02:15:46;7.00;5.25;4.00
46302;PMS7003;32029;51.358;5.628;2024-02-14T02:18:14;5.80;5.00;4.00
46302;PMS7003;32029;51.358;5.628;2024-02-14T02:20:41;8.00;6.00;4.00
46302;PMS7003;32029;51.358;5.628;2024-02-14T02:23:12;7.33;7.00;5.00
46302;PMS7003;32029;51.358;5.628;2024-02-14T02:25:41;7.67;4.00;2.33
46302;PMS7003;32029;51.358;5.628;2024-02-14T02:28:10;7.80;7.00;5.40
46302;PMS7003;32029;51.358;5.628;2024-02-14T02:30:36;8.33;5.67;4.00
46302;PMS7003;32029;51.358;5.628;2024-02-14T02:33:04;6.40;5.00;3.80
46302;PMS7003;32029;51.358;5.628;2024-02-14T02:35:31;8.00;5.67;4.00
46302;PMS7003;32029;51.358;5.628;2024-02-14T02:37:59;8.20;5.60;4.60
46302;PMS7003;32029;51.358;5.628;2024-02-14T02:40:27;10.40;7.80;7.00
46302;PMS7003;32029;51.358;5.628;2024-02-14T02:42:55;7.40;6.40;4.40
46302;PMS7003;32029;51.358;5.628;2024-02-14T02:45:22;8.33;5.00;4.00
46302;PMS7003;32029;51.358;5.628;2024-02-14T02:47:50;8.20;7.00;4.00
46302;PMS7003;32029;51.358;5.628;2024-02-14T02:50:20;7.00;4.67;4.00
46302;PMS7003;32029;51.358;5.628;2024-02-14T02:52:49;6.60;5.80;5.00
46302;PMS7003;32029;51.358;5.628;2024-02-14T02:55:16;6.20;6.20;4.40
46302;PMS7003;32029;51.358;5.628;2024-02-14T02:57:45;9.40;7.20;4.80
46302;PMS7003;32029;51.358;5.628;2024-02-14T03:00:13;5.80;5.80;5.00
46302;PMS7003;32029;51.358;5.628;2024-02-14T03:02:45;5.33;5.33;4.33
46302;PMS7003;32029;51.358;5.628;2024-02-14T03:05:12;8.20;7.00;4.40
46302;PMS7003;32029;51.358;5.628;2024-02-14T03:07:47;12.00;7.00;4.20
46302;PMS7003;32029;51.358;5.628;2024-02-14T03:10:17;7.00;7.00;6.20
46302;PMS7003;32029;51.358;5.628;2024-02-14T03:12:45;5.00;4.67;3.67
46302;PMS7003;32029;51.358;5.628;2024-02-14T03:15:13;5.00;5.00;5.00
46302;PMS7003;32029;51.358;5.628;2024-02-14T03:17:41;7.00;6.00;5.67
46302;PMS7003;32029;51.358;5.628;2024-02-14T03:20:12;9.60;5.60;5.00
46302;PMS7003;32029;51.358;5.628;2024-02-14T03:22:40;5.33;5.33;4.67
46302;PMS7003;32029;51.358;5.628;2024-02-14T03:25:14;7.33;7.33;5.00
46302;PMS7003;32029;51.358;5.628;2024-02-14T03:27:44;7.00;6.80;5.40
46302;PMS7003;32029;51.358;5.628;2024-02-14T03:30:16;7.60;7.60;7.00
46302;PMS7003;32029;51.358;5.628;2024-02-14T03:32:43;9.33;7.33;7.00
46302;PMS7003;32029;51.358;5.628;2024-02-14T03:35:14;7.20;5.60;4.20
46302;PMS7003;32029;51.358;5.628;2024-02-14T03:37:43;9.40;6.20;5.00
46302;PMS7003;32029;51.358;5.628;2024-02-14T03:40:13;4.67;4.67;4.00
46302;PMS7003;32029;51.358;5.628;2024-02-14T03:42:40;8.33;7.00;4.33
46302;PMS7003;32029;51.358;5.628;2024-02-14T03:45:07;6.00;6.00;4.33
46302;PMS7003;32029;51.358;5.628;2024-02-14T03:47:35;6.20;6.20;5.60
46302;PMS7003;32029;51.358;5.628;2024-02-14T03:50:07;6.00;6.00;4.80
46302;PMS7003;32029;51.358;5.628;2024-02-14T03:52:35;7.60;7.60;5.80
46302;PMS7003;32029;51.358;5.628;2024-02-14T03:55:04;9.40;8.80;7.00
46302;PMS7003;32029;51.358;5.628;2024-02-14T03:57:31;8.00;7.00;5.67
46302;PMS7003;32029;51.358;5.628;2024-02-14T04:00:02;7.20;6.00;5.40
46302;PMS7003;32029;51.358;5.628;2024-02-14T04:02:31;5.40;5.40;4.00
46302;PMS7003;32029;51.358;5.628;2024-02-14T04:04:59;9.40;8.00;6.60
46302;PMS7003;32029;51.358;5.628;2024-02-14T04:07:26;7.60;7.60;6.40
46302;PMS7003;32029;51.358;5.628;2024-02-14T04:09:54;8.00;7.40;5.60
46302;PMS7003;32029;51.358;5.628;2024-02-14T04:12:21;6.33;3.67;3.00
46302;PMS7003;32029;51.358;5.628;2024-02-14T04:14:49;9.80;9.80;7.20
46302;PMS7003;32029;51.358;5.628;2024-02-14T04:17:18;9.00;7.20;5.20
46302;PMS7003;32029;51.358;5.628;2024-02-14T04:19:45;5.67;5.67;4.67
46302;PMS7003;32029;51.358;5.628;2024-02-14T04:22:12;6.00;6.00;3.00
46302;PMS7003;32029;51.358;5.628;2024-02-14T04:24:40;8.00;7.00;4.40
46302;PMS7003;32029;51.358;5.628;2024-02-14T04:27:08;4.80;4.00;3.00
46302;PMS7003;32029;51.358;5.628;2024-02-14T04:29:35;5.20;5.20;4.00
46302;PMS7003;32029;51.358;5.628;2024-02-14T04:32:03;9.40;7.20;4.00
46302;PMS7003;32029;51.358;5.628;2024-02-14T04:34:31;8.00;7.00;4.00
46302;PMS7003;32029;51.358;5.628;2024-02-14T04:36:59;11.20;7.00;5.00
46302;PMS7003;32029;51.358;5.628;2024-02-14T04:39:29;8.00;4.33;2.00
46302;PMS7003;32029;51.358;5.628;2024-02-14T04:41:57;5.20;5.20;4.60
46302;PMS7003;32029;51.358;5.628;2024-02-14T04:44:24;7.00;5.00;4.00
46302;PMS7003;32029;51.358;5.628;2024-02-14T04:46:52;9.60;7.20;5.00
46302;PMS7003;32029;51.358;5.628;2024-02-14T04:49:20;8.60;5.20;3.80
46302;PMS7003;32029;51.358;5.628;2024-02-14T04:51:48;5.00;5.00;4.00
46302;PMS7003;32029;51.358;5.628;2024-02-14T04:54:15;9.33;7.67;6.33
46302;PMS7003;32029;51.358;5.628;2024-02-14T04:56:43;12.40;9.00;8.20
46302;PMS7003;32029;51.358;5.628;2024-02-14T04:59:12;10.40;8.00;6.80
46302;PMS7003;32029;51.358;5.628;2024-02-14T05:01:40;7.60;7.60;5.60
46302;PMS7003;32029;51.358;5.628;2024-02-14T05:04:07;8.33;8.00;7.33
46302;PMS7003;32029;51.358;5.628;2024-02-14T05:06:34;13.33;11.00;7.67
46302;PMS7003;32029;51.358;5.628;2024-02-14T05:09:02;11.40;10.00;7.40
46302;PMS7003;32029;51.358;5.628;2024-02-14T05:11:30;9.20;9.20;8.20
46302;PMS7003;32029;51.358;5.628;2024-02-14T05:13:57;12.80;9.60;7.60
46302;PMS7003;32029;51.358;5.628;2024-02-14T05:16:24;9.00;7.67;5.00
46302;PMS7003;32029;51.358;5.628;2024-02-14T05:18:51;7.00;7.00;5.00
46302;PMS7003;32029;51.358;5.628;2024-02-14T05:21:21;10.80;9.00;7.00
46302;PMS7003;32029;51.358;5.628;2024-02-14T05:23:48;9.00;7.00;2.00
46302;PMS7003;32029;51.358;5.628;2024-02-14T05:26:17;11.60;8.60;7.00
46302;PMS7003;32029;51.358;5.628;2024-02-14T05:28:44;10.67;9.67;7.33
46302;PMS7003;32029;51.358;5.628;2024-02-14T05:31:10;9.00;7.00;4.33
46302;PMS7003;32029;51.358;5.628;2024-02-14T05:33:37;8.33;8.33;7.00
46302;PMS7003;32029;51.358;5.628;2024-02-14T05:36:04;10.00;7.00;7.00
46302;PMS7003;32029;51.358;5.628;2024-02-14T05:38:33;9.00;7.60;7.00
46302;PMS7003;32029;51.358;5.628;2024-02-14T05:41:01;8.00;7.20;7.00
46302;PMS7003;32029;51.358;5.628;2024-02-14T05:43:29;8.00;8.00;5.00
46302;PMS7003;32029;51.358;5.628;2024-02-14T05:45:57;8.00;8.00;5.00
46302;PMS7003;32029;51.358;5.628;2024-02-14T05:48:24;9.67;9.00;7.67
46302;PMS7003;32029;51.358;5.628;2024-02-14T05:50:51;8.00;8.00;6.33
46302;PMS7003;32029;51.358;5.628;2024-02-14T05:53:18;9.00;9.00;8.00
46302;PMS7003;32029;51.358;5.628;2024-02-14T05:55:46;8.00;8.00;5.00
46302;PMS7003;32029;51.358;5.628;2024-02-14T05:58:13;11.00;10.00;7.00
46302;PMS7003;32029;51.358;5.628;2024-02-14T06:00:41;9.40;8.40;4.40
46302;PMS7003;32029;51.358;5.628;2024-02-14T06:03:08;10.00;10.00;8.00
46302;PMS7003;32029;51.358;5.628;2024-02-14T06:05:34;10.00;10.00;9.00
46302;PMS7003;32029;51.358;5.628;2024-02-14T06:08:01;14.00;9.00;8.00
46302;PMS7003;32029;51.358;5.628;2024-02-14T06:10:30;8.00;8.00;5.60
46302;PMS7003;32029;51.358;5.628;2024-02-14T06:12:57;15.33;13.33;9.00
46302;PMS7003;32029;51.358;5.628;2024-02-14T06:15:25;12.67;8.67;7.33
46302;PMS7003;32029;51.358;5.628;2024-02-14T06:17:53;9.67;8.67;7.00
46302;PMS7003;32029;51.358;5.628;2024-02-14T06:20:22;11.40;10.60;8.00
46302;PMS7003;32029;51.358;5.628;2024-02-14T06:22:50;9.00;9.00;7.00
46302;PMS7003;32029;51.358;5.628;2024-02-14T06:25:17;11.33;10.67;8.00
46302;PMS7003;32029;51.358;5.628;2024-02-14T06:27:46;8.67;8.67;7.33
46302;PMS7003;32029;51.358;5.628;2024-02-14T06:30:14;9.40;8.60;5.40
46302;PMS7003;32029;51.358;5.628;2024-02-14T06:32:41;13.00;10.33;7.33
46302;PMS7003;32029;51.358;5.628;2024-02-14T06:35:08;9.80;8.80;5.00
46302;PMS7003;32029;51.358;5.628;2024-02-14T06:37:35;12.33;11.67;8.00
46302;PMS7003;32029;51.358;5.628;2024-02-14T06:40:04;10.00;8.60;7.80
46302;PMS7003;32029;51.358;5.628;2024-02-14T06:42:35;9.40;8.60;7.00
46302;PMS7003;32029;51.358;5.628;2024-02-14T06:45:03;9.60;9.60;8.40
46302;PMS7003;32029;51.358;5.628;2024-02-14T06:47:31;11.67;9.67;7.00
46302;PMS7003;32029;51.358;5.628;2024-02-14T06:49:58;10.67;9.67;8.00
46302;PMS7003;32029;51.358;5.628;2024-02-14T06:52:26;11.00;10.00;7.00
46302;PMS7003;32029;51.358;5.628;2024-02-14T06:54:54;10.00;9.00;8.00
46302;PMS7003;32029;51.358;5.628;2024-02-14T06:57:22;10.80;10.80;9.00
46302;PMS7003;32029;51.358;5.628;2024-02-14T06:59:50;10.80;10.40;8.40
46302;PMS7003;32029;51.358;5.628;2024-02-14T07:02:17;11.33;11.33;9.00
46302;PMS7003;32029;51.358;5.628;2024-02-14T07:04:44;10.40;10.00;7.00
46302;PMS7003;32029;51.358;5.628;2024-02-14T07:07:11;12.00;10.67;8.00
46302;PMS7003;32029;51.358;5.628;2024-02-14T07:09:39;10.20;10.00;7.80
46302;PMS7003;32029;51.358;5.628;2024-02-14T07:12:06;12.33;10.00;7.00
46302;PMS7003;32029;51.358;5.628;2024-02-14T07:14:33;15.00;10.33;9.00
46302;PMS7003;32029;51.358;5.628;2024-02-14T07:17:01;11.00;10.00;8.00
46302;PMS7003;32029;51.358;5.628;2024-02-14T07:19:28;11.67;11.67;8.33
46302;PMS7003;32029;51.358;5.628;2024-02-14T07:21:55;11.67;9.00;5.67
46302;PMS7003;32029;51.358;5.628;2024-02-14T07:24:22;12.00;10.00;8.00
46302;PMS7003;32029;51.358;5.628;2024-02-14T07:26:49;11.00;10.00;7.67
46302;PMS7003;32029;51.358;5.628;2024-02-14T07:29:16;11.33;10.00;6.33
46302;PMS7003;32029;51.358;5.628;2024-02-14T07:31:43;10.00;10.00;8.00
46302;PMS7003;32029;51.358;5.628;2024-02-14T07:34:10;11.00;10.00;8.00
46302;PMS7003;32029;51.358;5.628;2024-02-14T07:36:38;13.33;11.33;8.33
46302;PMS7003;32029;51.358;5.628;2024-02-14T07:39:07;15.00;11.00;8.00
46302;PMS7003;32029;51.358;5.628;2024-02-14T07:41:36;12.00;8.40;6.60
46302;PMS7003;32029;51.358;5.628;2024-02-14T07:44:02;12.33;11.00;8.67
46302;PMS7003;32029;51.358;5.628;2024-02-14T07:46:30;11.33;10.67;8.33
46302;PMS7003;32029;51.358;5.628;2024-02-14T07:48:58;16.33;15.00;9.00
46302;PMS7003;32029;51.358;5.628;2024-02-14T07:51:25;13.33;13.33;10.00
46302;PMS7003;32029;51.358;5.628;2024-02-14T07:53:52;11.67;9.67;8.33
46302;PMS7003;32029;51.358;5.628;2024-02-14T07:56:19;14.33;12.00;9.00
46302;PMS7003;32029;51.358;5.628;2024-02-14T07:58:47;13.60;11.00;8.40
46302;PMS7003;32029;51.358;5.628;2024-02-14T08:01:16;11.33;11.33;9.00
46302;PMS7003;32029;51.358;5.628;2024-02-14T08:03:43;10.00;10.00;8.00
46302;PMS7003;32029;51.358;5.628;2024-02-14T08:06:12;11.67;10.33;9.00
46302;PMS7003;32029;51.358;5.628;2024-02-14T08:08:40;10.20;10.20;7.60
46302;PMS7003;32029;51.358;5.628;2024-02-14T08:11:08;9.80;9.60;8.00
46302;PMS7003;32029;51.358;5.628;2024-02-14T08:13:35;10.00;10.00;8.00
46302;PMS7003;32029;51.358;5.628;2024-02-14T08:16:05;7.00;7.00;4.40
46302;PMS7003;32029;51.358;5.628;2024-02-14T08:18:33;15.33;12.67;9.00
46302;PMS7003;32029;51.358;5.628;2024-02-14T08:21:00;11.00;10.00;8.00
46302;PMS7003;32029;51.358;5.628;2024-02-14T08:23:27;16.33;11.33;9.33
46302;PMS7003;32029;51.358;5.628;2024-02-14T08:25:54;14.33;10.00;8.00
46302;PMS7003;32029;51.358;5.628;2024-02-14T08:28:20;10.67;9.33;7.33
46302;PMS7003;32029;51.358;5.628;2024-02-14T08:30:47;11.33;10.67;9.00
46302;PMS7003;32029;51.358;5.628;2024-02-14T08:33:14;11.00;10.00;8.67
46302;PMS7003;32029;51.358;5.628;2024-02-14T08:35:41;14.33;11.00;8.00
46302;PMS7003;32029;51.358;5.628;2024-02-14T08:38:08;12.00;10.00;8.00
46302;PMS7003;32029;51.358;5.628;2024-02-14T08:40:36;9.80;9.80;8.20
46302;PMS7003;32029;51.358;5.628;2024-02-14T08:43:05;10.83;9.83;8.00
46302;PMS7003;32029;51.358;5.628;2024-02-14T08:45:34;8.40;7.80;6.40
46302;PMS7003;32029;51.358;5.628;2024-02-14T08:48:02;8.60;8.60;5.40
46302;PMS7003;32029;51.358;5.628;2024-02-14T08:50:30;10.20;10.20;5.40
46302;PMS7003;32029;51.358;5.628;2024-02-14T08:52:57;11.00;9.67;6.67
46302;PMS7003;32029;51.358;5.628;2024-02-14T08:55:25;14.20;10.20;6.40
46302;PMS7003;32029;51.358;5.628;2024-02-14T08:57:51;14.00;10.33;8.33
46302;PMS7003;32029;51.358;5.628;2024-02-14T09:00:19;16.20;10.60;8.00
46302;PMS7003;32029;51.358;5.628;2024-02-14T09:02:46;9.67;9.00;8.00
46302;PMS7003;32029;51.358;5.628;2024-02-14T09:05:14;9.80;8.80;4.60
46302;PMS7003;32029;51.358;5.628;2024-02-14T09:07:44;10.80;10.20;8.80
46302;PMS7003;32029;51.358;5.628;2024-02-14T09:10:12;11.33;8.33;6.67
46302;PMS7003;32029;51.358;5.628;2024-02-14T09:12:40;8.40;8.40;5.40
46302;PMS7003;32029;51.358;5.628;2024-02-14T09:15:10;11.33;10.33;7.67
46302;PMS7003;32029;51.358;5.628;2024-02-14T09:17:38;5.67;5.67;5.00
46302;PMS7003;32029;51.358;5.628;2024-02-14T09:20:06;9.67;8.33;6.67
46302;PMS7003;32029;51.358;5.628;2024-02-14T09:22:37;13.67;12.00;9.33
46302;PMS7003;32029;51.358;5.628;2024-02-14T09:25:04;9.33;9.33;6.67
46302;PMS7003;32029;51.358;5.628;2024-02-14T09:27:32;7.00;6.00;5.00
46302;PMS7003;32029;51.358;5.628;2024-02-14T09:30:02;12.33;9.67;7.67
46302;PMS7003;32029;51.358;5.628;2024-02-14T09:32:34;11.60;9.60;7.20
46302;PMS7003;32029;51.358;5.628;2024-02-14T09:35:02;10.80;9.60;5.00
46302;PMS7003;32029;51.358;5.628;2024-02-14T09:37:34;10.20;9.20;6.40
46302;PMS7003;32029;51.358;5.628;2024-02-14T09:40:01;8.20;8.20;6.00
46302;PMS7003;32029;51.358;5.628;2024-02-14T09:42:33;10.67;9.00;6.00
46302;PMS7003;32029;51.358;5.628;2024-02-14T09:45:06;7.00;7.00;5.00
46302;PMS7003;32029;51.358;5.628;2024-02-14T09:47:34;9.00;7.33;5.00
46302;PMS7003;32029;51.358;5.628;2024-02-14T09:50:04;9.00;6.60;5.80
46302;PMS7003;32029;51.358;5.628;2024-02-14T09:52:34;12.20;9.40;7.00
46302;PMS7003;32029;51.358;5.628;2024-02-14T09:55:05;8.40;6.60;5.00
46302;PMS7003;32029;51.358;5.628;2024-02-14T09:57:37;8.80;6.00;5.00
46302;PMS7003;32029;51.358;5.628;2024-02-14T10:00:11;10.00;9.67;7.67
46302;PMS7003;32029;51.358;5.628;2024-02-14T10:02:41;10.33;7.67;6.00
46302;PMS7003;32029;51.358;5.628;2024-02-14T10:05:09;8.60;8.60;5.60
46302;PMS7003;32029;51.358;5.628;2024-02-14T10:07:41;8.20;7.80;5.20
46302;PMS7003;32029;51.358;5.628;2024-02-14T10:10:09;8.33;4.00;2.00
46302;PMS7003;32029;51.358;5.628;2024-02-14T10:12:38;7.80;7.40;6.00
46302;PMS7003;32029;51.358;5.628;2024-02-14T10:15:08;9.40;9.40;6.40
46302;PMS7003;32029;51.358;5.628;2024-02-14T10:17:38;11.00;8.60;6.00
46302;PMS7003;32029;51.358;5.628;2024-02-14T10:20:08;9.20;9.20;6.00
46302;PMS7003;32029;51.358;5.628;2024-02-14T10:22:36;8.00;7.00;6.00
46302;PMS7003;32029;51.358;5.628;2024-02-14T10:25:05;8.20;7.60;5.20
46302;PMS7003;32029;51.358;5.628;2024-02-14T10:27:38;10.00;8.33;6.00
46302;PMS7003;32029;51.358;5.628;2024-02-14T10:30:07;8.40;8.40;6.00
46302;PMS7003;32029;51.358;5.628;2024-02-14T10:32:38;9.67;8.00;6.00
46302;PMS7003;32029;51.358;5.628;2024-02-14T10:35:06;5.00;5.00;5.00
46302;PMS7003;32029;51.358;5.628;2024-02-14T10:37:35;7.00;7.00;6.00
46302;PMS7003;32029;51.358;5.628;2024-02-14T10:40:05;9.00;7.60;5.60
46302;PMS7003;32029;51.358;5.628;2024-02-14T10:42:34;8.20;7.80;5.20
46302;PMS7003;32029;51.358;5.628;2024-02-14T10:45:02;3.67;3.67;2.00
46302;PMS7003;32029;51.358;5.628;2024-02-14T10:47:30;10.00;10.00;7.33
46302;PMS7003;32029;51.358;5.628;2024-02-14T10:50:04;5.40;5.00;4.00
46302;PMS7003;32029;51.358;5.628;2024-02-14T10:52:34;7.33;5.67;5.00
46302;PMS7003;32029;51.358;5.628;2024-02-14T10:55:03;7.00;6.00;4.40
46302;PMS7003;32029;51.358;5.628;2024-02-14T10:57:33;7.80;6.40;4.80
46302;PMS7003;32029;51.358;5.628;2024-02-14T11:00:02;5.80;5.80;3.80
46302;PMS7003;32029;51.358;5.628;2024-02-14T11:02:35;9.40;8.40;6.00
46302;PMS7003;32029;51.358;5.628;2024-02-14T11:05:04;7.40;7.40;6.00
46302;PMS7003;32029;51.358;5.628;2024-02-14T11:07:34;6.40;5.20;4.20
46302;PMS7003;32029;51.358;5.628;2024-02-14T11:10:05;6.33;6.00;5.00
46302;PMS7003;32029;51.358;5.628;2024-02-14T11:12:35;5.60;5.00;4.00
46302;PMS7003;32029;51.358;5.628;2024-02-14T11:17:46;5.00;5.00;4.20
46302;PMS7003;32029;51.358;5.628;2024-02-14T11:20:20;7.00;7.00;5.20
46302;PMS7003;32029;51.358;5.628;2024-02-14T11:22:52;5.60;5.60;4.80
46302;PMS7003;32029;51.358;5.628;2024-02-14T11:25:31;9.00;6.00;5.00
46302;PMS7003;32029;51.358;5.628;2024-02-14T11:28:17;8.40;5.40;4.40
46302;PMS7003;32029;51.358;5.628;2024-02-14T11:30:48;2.33;2.33;1.00
46302;PMS7003;32029;51.358;5.628;2024-02-14T11:33:16;5.60;5.20;4.00
46302;PMS7003;32029;51.358;5.628;2024-02-14T11:35:49;5.40;4.20;3.00
46302;PMS7003;32029;51.358;5.628;2024-02-14T11:38:17;9.00;5.67;4.00
46302;PMS7003;32029;51.358;5.628;2024-02-14T11:40:46;6.00;4.80;4.00
46302;PMS7003;32029;51.358;5.628;2024-02-14T11:43:14;6.00;5.00;4.00
46302;PMS7003;32029;51.358;5.628;2024-02-14T11:45:46;5.60;5.60;4.00
46302;PMS7003;32029;51.358;5.628;2024-02-14T11:48:16;4.00;4.00;3.33
46302;PMS7003;32029;51.358;5.628;2024-02-14T11:50:44;7.40;5.60;4.40
46302;PMS7003;32029;51.358;5.628;2024-02-14T11:53:13;7.60;7.60;6.00
46302;PMS7003;32029;51.358;5.628;2024-02-14T11:55:43;5.00;5.00;4.00
46302;PMS7003;32029;51.358;5.628;2024-02-14T11:58:11;6.00;4.80;4.60
46302;PMS7003;32029;51.358;5.628;2024-02-14T12:00:42;3.67;2.33;2.33
46302;PMS7003;32029;51.358;5.628;2024-02-14T12:03:11;5.33;5.33;4.00
46302;PMS7003;32029;51.358;5.628;2024-02-14T12:05:39;7.00;6.00;4.33
46302;PMS7003;32029;51.358;5.628;2024-02-14T12:08:07;5.33;4.67;3.00
46302;PMS7003;32029;51.358;5.628;2024-02-14T12:10:35;4.00;4.00;3.67
46302;PMS7003;32029;51.358;5.628;2024-02-14T12:13:12;7.00;4.67;4.00
46302;PMS7003;32029;51.358;5.628;2024-02-14T12:15:39;3.33;3.33;3.00
46302;PMS7003;32029;51.358;5.628;2024-02-14T12:18:10;4.00;4.00;4.00
46302;PMS7003;32029;51.358;5.628;2024-02-14T12:20:38;5.00;3.00;3.00
46302;PMS7003;32029;51.358;5.628;2024-02-14T12:23:06;4.80;4.00;3.60
46302;PMS7003;32029;51.358;5.628;2024-02-14T12:25:33;4.00;2.33;2.00
46302;PMS7003;32029;51.358;5.628;2024-02-14T12:28:00;5.00;5.00;4.67
46302;PMS7003;32029;51.358;5.628;2024-02-14T12:30:33;6.00;4.00;3.00
46302;PMS7003;32029;51.358;5.628;2024-02-14T12:33:13;5.40;5.20;4.60
46302;PMS7003;32029;51.358;5.628;2024-02-14T12:35:41;4.00;4.00;3.67
46302;PMS7003;32029;51.358;5.628;2024-02-14T12:38:10;3.00;3.00;3.00
46302;PMS7003;32029;51.358;5.628;2024-02-14T12:40:39;5.60;5.00;4.80
46302;PMS7003;32029;51.358;5.628;2024-02-14T12:43:09;6.40;5.00;4.20
46302;PMS7003;32029;51.358;5.628;2024-02-14T12:45:39;4.00;4.00;3.00
46302;PMS7003;32029;51.358;5.628;2024-02-14T12:48:11;4.00;4.00;3.67
46302;PMS7003;32029;51.358;5.628;2024-02-14T12:50:39;5.00;3.67;3.00
46302;PMS7003;32029;51.358;5.628;2024-02-14T12:53:13;9.00;5.80;4.00
46302;PMS7003;32029;51.358;5.628;2024-02-14T12:55:41;3.40;3.40;3.00
46302;PMS7003;32029;51.358;5.628;2024-02-14T12:58:08;4.00;3.00;3.00
46302;PMS7003;32029;51.358;5.628;2024-02-14T13:00:36;3.33;3.00;3.00
46302;PMS7003;32029;51.358;5.628;2024-02-14T13:08:17;2.00;2.00;2.00
46302;PMS7003;32029;51.358;5.628;2024-02-14T13:10:44;3.67;3.67;3.00
46302;PMS7003;32029;51.358;5.628;2024-02-14T13:13:12;4.00;3.00;2.67
46302;PMS7003;32029;51.358;5.628;2024-02-14T13:15:40;3.00;3.00;3.00
46302;PMS7003;32029;51.358;5.628;2024-02-14T13:18:09;4.00;3.00;2.67
46302;PMS7003;32029;51.358;5.628;2024-02-14T13:20:35;1.00;1.00;1.00
46302;PMS7003;32029;51.358;5.628;2024-02-14T13:23:03;2.33;2.00;2.00
46302;PMS7003;32029;51.358;5.628;2024-02-14T13:25:31;2.33;2.33;2.00
46302;PMS7003;32029;51.358;5.628;2024-02-14T13:27:58;3.00;2.00;1.80
46302;PMS7003;32029;51.358;5.628;2024-02-14T13:30:25;3.00;2.00;2.00
46302;PMS7003;32029;51.358;5.628;2024-02-14T13:32:52;3.00;2.00;1.33
46302;PMS7003;32029;51.358;5.628;2024-02-14T13:35:20;1.80;1.40;1.00
46302;PMS7003;32029;51.358;5.628;2024-02-14T13:56:09;3.00;3.00;2.33
46302;PMS7003;32029;51.358;5.628;2024-02-14T13:58:36;2.00;2.00;1.40
46302;PMS7003;32029;51.358;5.628;2024-02-14T14:01:04;4.00;4.00;3.00
46302;PMS7003;32029;51.358;5.628;2024-02-14T14:03:33;3.67;3.00;3.00
46302;PMS7003;32029;51.358;5.628;2024-02-14T14:06:03;2.00;2.00;2.00
46302;PMS7003;32029;51.358;5.628;2024-02-14T14:08:35;2.80;2.80;2.20
46302;PMS7003;32029;51.358;5.628;2024-02-14T14:11:02;3.00;3.00;2.00
46302;PMS7003;32029;51.358;5.628;2024-02-14T14:13:31;2.80;2.80;2.00
46302;PMS7003;32029;51.358;5.628;2024-02-14T14:15:59;4.00;4.00;3.67
46302;PMS7003;32029;51.358;5.628;2024-02-14T14:18:26;4.00;4.00;3.00
46302;PMS7003;32029;51.358;5.628;2024-02-14T14:20:54;2.67;2.67;2.00
46302;PMS7003;32029;51.358;5.628;2024-02-14T14:23:20;2.33;2.33;2.00
46302;PMS7003;32029;51.358;5.628;2024-02-14T14:25:48;5.00;5.00;4.00
46302;PMS7003;32029;51.358;5.628;2024-02-14T14:28:15;4.00;3.00;2.33
46302;PMS7003;32029;51.358;5.628;2024-02-14T14:30:43;4.00;4.00;3.00
46302;PMS7003;32029;51.358;5.628;2024-02-14T14:33:10;4.00;4.00;3.00
46302;PMS7003;32029;51.358;5.628;2024-02-14T14:35:37;4.00;4.00;3.00
46302;PMS7003;32029;51.358;5.628;2024-02-14T14:38:05;4.00;4.00;3.00
46302;PMS7003;32029;51.358;5.628;2024-02-14T14:40:32;4.67;3.33;3.00
46302;PMS7003;32029;51.358;5.628;2024-02-14T14:42:59;6.00;6.00;4.00
46302;PMS7003;32029;51.358;5.628;2024-02-14T14:45:27;5.00;5.00;4.00
46302;PMS7003;32029;51.358;5.628;2024-02-14T14:47:55;6.40;5.20;4.00